sensor_id;sensor_type;location;lat;lon;timestamp;P1;durP1;ratioP1;P2;durP2;ratioP2
18048;SDS011;9149;47.002;8.604;2023-08-31T00:02:10;1.90;;;1.40;;
18048;SDS011;9149;47.002;8.604;2023-08-31T00:04:37;1.92;;;1.45;;
18048;SDS011;9149;47.002;8.604;2023-08-31T00:07:05;1.73;;;1.40;;
18048;SDS011;9149;47.002;8.604;2023-08-31T00:09:33;1.95;;;1.40;;
18048;SDS011;9149;47.002;8.604;2023-08-31T00:12:01;2.08;;;1.50;;
18048;SDS011;9149;47.002;8.604;2023-08-31T00:14:30;1.83;;;1.58;;
18048;SDS011;9149;47.002;8.604;2023-08-31T00:16:58;1.63;;;1.52;;
18048;SDS011;9149;47.002;8.604;2023-08-31T00:19:26;3.20;;;1.52;;
18048;SDS011;9149;47.002;8.604;2023-08-31T00:21:54;1.90;;;1.58;;
18048;SDS011;9149;47.002;8.604;2023-08-31T00:24:21;1.70;;;1.60;;
18048;SDS011;9149;47.002;8.604;2023-08-31T00:26:54;1.75;;;1.30;;
18048;SDS011;9149;47.002;8.604;2023-08-31T00:29:23;2.15;;;1.45;;
18048;SDS011;9149;47.002;8.604;2023-08-31T00:31:53;1.90;;;1.42;;
18048;SDS011;9149;47.002;8.604;2023-08-31T00:34:20;2.15;;;1.25;;
18048;SDS011;9149;47.002;8.604;2023-08-31T00:36:48;3.72;;;1.70;;
18048;SDS011;9149;47.002;8.604;2023-08-31T00:39:16;5.60;;;1.60;;
18048;SDS011;9149;47.002;8.604;2023-08-31T00:41:47;1.65;;;1.50;;
18048;SDS011;9149;47.002;8.604;2023-08-31T00:44:16;2.13;;;1.55;;
18048;SDS011;9149;47.002;8.604;2023-08-31T00:46:47;1.63;;;1.30;;
18048;SDS011;9149;47.002;8.604;2023-08-31T00:49:16;11.23;;;1.30;;
18048;SDS011;9149;47.002;8.604;2023-08-31T00:51:44;2.30;;;1.67;;
18048;SDS011;9149;47.002;8.604;2023-08-31T00:54:15;2.95;;;1.38;;
18048;SDS011;9149;47.002;8.604;2023-08-31T00:56:43;2.38;;;1.60;;
18048;SDS011;9149;47.002;8.604;2023-08-31T00:59:11;2.40;;;1.70;;
18048;SDS011;9149;47.002;8.604;2023-08-31T01:01:41;4.97;;;1.65;;
18048;SDS011;9149;47.002;8.604;2023-08-31T01:04:16;1.92;;;1.60;;
18048;SDS011;9149;47.002;8.604;2023-08-31T01:06:49;2.30;;;1.70;;
18048;SDS011;9149;47.002;8.604;2023-08-31T01:09:20;1.55;;;1.20;;
18048;SDS011;9149;47.002;8.604;2023-08-31T01:11:54;2.97;;;1.45;;
18048;SDS011;9149;47.002;8.604;2023-08-31T01:14:24;2.33;;;1.70;;
18048;SDS011;9149;47.002;8.604;2023-08-31T01:16:53;2.05;;;1.55;;
18048;SDS011;9149;47.002;8.604;2023-08-31T01:19:25;1.90;;;1.45;;
18048;SDS011;9149;47.002;8.604;2023-08-31T01:22:00;1.70;;;1.50;;
18048;SDS011;9149;47.002;8.604;2023-08-31T01:24:29;1.50;;;1.30;;
18048;SDS011;9149;47.002;8.604;2023-08-31T01:26:57;2.90;;;1.70;;
18048;SDS011;9149;47.002;8.604;2023-08-31T01:29:25;1.60;;;1.50;;
18048;SDS011;9149;47.002;8.604;2023-08-31T01:31:53;8.02;;;1.98;;
18048;SDS011;9149;47.002;8.604;2023-08-31T01:34:21;1.90;;;1.30;;
18048;SDS011;9149;47.002;8.604;2023-08-31T01:36:50;5.97;;;1.67;;
18048;SDS011;9149;47.002;8.604;2023-08-31T01:39:21;2.45;;;1.50;;
18048;SDS011;9149;47.002;8.604;2023-08-31T01:41:51;3.78;;;1.88;;
18048;SDS011;9149;47.002;8.604;2023-08-31T01:44:21;1.70;;;1.30;;
18048;SDS011;9149;47.002;8.604;2023-08-31T01:46:51;2.58;;;1.70;;
18048;SDS011;9149;47.002;8.604;2023-08-31T01:49:22;1.83;;;1.40;;
18048;SDS011;9149;47.002;8.604;2023-08-31T01:51:51;7.38;;;1.95;;
18048;SDS011;9149;47.002;8.604;2023-08-31T01:54:19;1.80;;;1.40;;
18048;SDS011;9149;47.002;8.604;2023-08-31T01:56:47;2.50;;;1.50;;
18048;SDS011;9149;47.002;8.604;2023-08-31T01:59:16;1.67;;;1.25;;
18048;SDS011;9149;47.002;8.604;2023-08-31T02:01:44;2.33;;;1.20;;
18048;SDS011;9149;47.002;8.604;2023-08-31T02:04:11;3.10;;;1.77;;
18048;SDS011;9149;47.002;8.604;2023-08-31T02:06:39;2.10;;;1.50;;
18048;SDS011;9149;47.002;8.604;2023-08-31T02:09:07;6.35;;;1.30;;
18048;SDS011;9149;47.002;8.604;2023-08-31T02:11:34;1.95;;;1.30;;
18048;SDS011;9149;47.002;8.604;2023-08-31T02:14:04;2.28;;;1.50;;
18048;SDS011;9149;47.002;8.604;2023-08-31T02:16:33;2.45;;;1.55;;
18048;SDS011;9149;47.002;8.604;2023-08-31T02:19:01;1.42;;;1.30;;
18048;SDS011;9149;47.002;8.604;2023-08-31T02:21:28;1.25;;;1.15;;
18048;SDS011;9149;47.002;8.604;2023-08-31T02:23:56;1.92;;;1.23;;
18048;SDS011;9149;47.002;8.604;2023-08-31T02:26:23;2.28;;;1.23;;
18048;SDS011;9149;47.002;8.604;2023-08-31T02:28:51;1.88;;;1.30;;
18048;SDS011;9149;47.002;8.604;2023-08-31T02:31:19;3.45;;;1.30;;
18048;SDS011;9149;47.002;8.604;2023-08-31T02:33:48;1.73;;;1.38;;
18048;SDS011;9149;47.002;8.604;2023-08-31T02:36:16;1.30;;;1.17;;
18048;SDS011;9149;47.002;8.604;2023-08-31T02:38:44;2.75;;;1.70;;
18048;SDS011;9149;47.002;8.604;2023-08-31T02:41:12;2.17;;;1.55;;
18048;SDS011;9149;47.002;8.604;2023-08-31T02:43:40;2.67;;;1.65;;
18048;SDS011;9149;47.002;8.604;2023-08-31T02:46:09;1.77;;;1.10;;
18048;SDS011;9149;47.002;8.604;2023-08-31T02:48:37;2.70;;;1.60;;
18048;SDS011;9149;47.002;8.604;2023-08-31T02:51:07;10.23;;;2.20;;
18048;SDS011;9149;47.002;8.604;2023-08-31T02:53:34;11.23;;;1.75;;
18048;SDS011;9149;47.002;8.604;2023-08-31T02:56:02;2.60;;;1.90;;
18048;SDS011;9149;47.002;8.604;2023-08-31T02:58:30;2.30;;;1.42;;
18048;SDS011;9149;47.002;8.604;2023-08-31T03:01:05;2.20;;;1.70;;
18048;SDS011;9149;47.002;8.604;2023-08-31T03:03:34;2.08;;;1.38;;
18048;SDS011;9149;47.002;8.604;2023-08-31T03:06:02;4.07;;;1.60;;
18048;SDS011;9149;47.002;8.604;2023-08-31T03:08:31;2.83;;;1.70;;
18048;SDS011;9149;47.002;8.604;2023-08-31T03:10:59;2.15;;;1.55;;
18048;SDS011;9149;47.002;8.604;2023-08-31T03:13:26;1.88;;;1.60;;
18048;SDS011;9149;47.002;8.604;2023-08-31T03:15:54;2.83;;;1.70;;
18048;SDS011;9149;47.002;8.604;2023-08-31T03:18:23;2.42;;;1.73;;
18048;SDS011;9149;47.002;8.604;2023-08-31T03:20:51;2.25;;;1.48;;
18048;SDS011;9149;47.002;8.604;2023-08-31T03:23:19;2.35;;;1.75;;
18048;SDS011;9149;47.002;8.604;2023-08-31T03:25:48;3.13;;;1.70;;
18048;SDS011;9149;47.002;8.604;2023-08-31T03:28:16;1.80;;;1.42;;
18048;SDS011;9149;47.002;8.604;2023-08-31T03:30:43;4.03;;;1.77;;
18048;SDS011;9149;47.002;8.604;2023-08-31T03:33:12;1.98;;;1.60;;
18048;SDS011;9149;47.002;8.604;2023-08-31T03:35:40;3.45;;;1.60;;
18048;SDS011;9149;47.002;8.604;2023-08-31T03:38:08;2.67;;;1.45;;
18048;SDS011;9149;47.002;8.604;2023-08-31T03:40:37;2.83;;;1.60;;
18048;SDS011;9149;47.002;8.604;2023-08-31T03:43:06;2.97;;;1.60;;
18048;SDS011;9149;47.002;8.604;2023-08-31T03:45:34;3.08;;;1.55;;
18048;SDS011;9149;47.002;8.604;2023-08-31T03:48:01;2.42;;;1.40;;
18048;SDS011;9149;47.002;8.604;2023-08-31T03:50:29;4.82;;;1.73;;
18048;SDS011;9149;47.002;8.604;2023-08-31T03:52:57;1.45;;;1.27;;
18048;SDS011;9149;47.002;8.604;2023-08-31T03:55:25;3.15;;;1.83;;
18048;SDS011;9149;47.002;8.604;2023-08-31T03:57:56;12.60;;;1.70;;
18048;SDS011;9149;47.002;8.604;2023-08-31T04:00:26;2.80;;;1.90;;
18048;SDS011;9149;47.002;8.604;2023-08-31T04:02:54;5.80;;;1.98;;
18048;SDS011;9149;47.002;8.604;2023-08-31T04:05:22;5.43;;;2.20;;
18048;SDS011;9149;47.002;8.604;2023-08-31T04:08:10;2.78;;;1.92;;
18048;SDS011;9149;47.002;8.604;2023-08-31T04:10:37;2.65;;;1.90;;
18048;SDS011;9149;47.002;8.604;2023-08-31T04:13:05;4.45;;;2.30;;
18048;SDS011;9149;47.002;8.604;2023-08-31T04:15:34;3.15;;;1.88;;
18048;SDS011;9149;47.002;8.604;2023-08-31T04:18:02;2.78;;;1.73;;
18048;SDS011;9149;47.002;8.604;2023-08-31T04:20:30;2.58;;;1.70;;
18048;SDS011;9149;47.002;8.604;2023-08-31T04:22:57;1.98;;;1.65;;
18048;SDS011;9149;47.002;8.604;2023-08-31T04:25:25;2.60;;;2.00;;
18048;SDS011;9149;47.002;8.604;2023-08-31T04:27:55;3.58;;;1.77;;
18048;SDS011;9149;47.002;8.604;2023-08-31T04:30:23;8.07;;;2.10;;
18048;SDS011;9149;47.002;8.604;2023-08-31T04:32:52;2.58;;;1.70;;
18048;SDS011;9149;47.002;8.604;2023-08-31T04:35:20;2.85;;;1.90;;
18048;SDS011;9149;47.002;8.604;2023-08-31T04:37:48;2.70;;;1.90;;
18048;SDS011;9149;47.002;8.604;2023-08-31T04:40:15;3.45;;;1.98;;
18048;SDS011;9149;47.002;8.604;2023-08-31T04:42:43;2.72;;;1.60;;
18048;SDS011;9149;47.002;8.604;2023-08-31T04:45:11;3.17;;;1.88;;
18048;SDS011;9149;47.002;8.604;2023-08-31T04:47:39;3.17;;;1.80;;
18048;SDS011;9149;47.002;8.604;2023-08-31T04:50:08;2.70;;;1.80;;
18048;SDS011;9149;47.002;8.604;2023-08-31T04:52:36;2.78;;;1.75;;
18048;SDS011;9149;47.002;8.604;2023-08-31T04:55:05;2.53;;;1.90;;
18048;SDS011;9149;47.002;8.604;2023-08-31T04:57:34;2.33;;;1.80;;
18048;SDS011;9149;47.002;8.604;2023-08-31T05:00:02;2.60;;;1.88;;
18048;SDS011;9149;47.002;8.604;2023-08-31T05:02:34;1.98;;;1.63;;
18048;SDS011;9149;47.002;8.604;2023-08-31T05:05:02;2.22;;;1.92;;
18048;SDS011;9149;47.002;8.604;2023-08-31T05:07:32;5.03;;;1.90;;
18048;SDS011;9149;47.002;8.604;2023-08-31T05:09:59;2.70;;;1.80;;
18048;SDS011;9149;47.002;8.604;2023-08-31T05:12:27;3.08;;;2.00;;
18048;SDS011;9149;47.002;8.604;2023-08-31T05:14:54;8.55;;;1.90;;
18048;SDS011;9149;47.002;8.604;2023-08-31T05:17:22;2.30;;;1.83;;
18048;SDS011;9149;47.002;8.604;2023-08-31T05:19:50;2.55;;;1.77;;
18048;SDS011;9149;47.002;8.604;2023-08-31T05:22:17;3.10;;;1.73;;
18048;SDS011;9149;47.002;8.604;2023-08-31T05:24:46;5.85;;;2.00;;
18048;SDS011;9149;47.002;8.604;2023-08-31T05:27:14;2.83;;;2.00;;
18048;SDS011;9149;47.002;8.604;2023-08-31T05:29:42;2.35;;;1.95;;
18048;SDS011;9149;47.002;8.604;2023-08-31T05:32:09;2.88;;;1.80;;
18048;SDS011;9149;47.002;8.604;2023-08-31T05:34:37;2.97;;;1.90;;
18048;SDS011;9149;47.002;8.604;2023-08-31T05:37:06;2.60;;;1.95;;
18048;SDS011;9149;47.002;8.604;2023-08-31T05:39:33;2.90;;;1.92;;
18048;SDS011;9149;47.002;8.604;2023-08-31T05:42:02;3.63;;;2.28;;
18048;SDS011;9149;47.002;8.604;2023-08-31T05:44:30;2.92;;;1.90;;
18048;SDS011;9149;47.002;8.604;2023-08-31T05:46:58;3.13;;;2.40;;
18048;SDS011;9149;47.002;8.604;2023-08-31T05:49:25;2.85;;;2.17;;
18048;SDS011;9149;47.002;8.604;2023-08-31T05:51:54;6.57;;;1.83;;
18048;SDS011;9149;47.002;8.604;2023-08-31T05:54:21;3.63;;;1.92;;
18048;SDS011;9149;47.002;8.604;2023-08-31T05:56:49;3.13;;;2.10;;
18048;SDS011;9149;47.002;8.604;2023-08-31T05:59:19;5.03;;;2.20;;
18048;SDS011;9149;47.002;8.604;2023-08-31T06:01:47;4.82;;;2.28;;
18048;SDS011;9149;47.002;8.604;2023-08-31T06:04:15;4.40;;;2.05;;
18048;SDS011;9149;47.002;8.604;2023-08-31T06:06:43;3.28;;;2.13;;
18048;SDS011;9149;47.002;8.604;2023-08-31T06:09:11;3.03;;;2.25;;
18048;SDS011;9149;47.002;8.604;2023-08-31T06:11:38;3.55;;;2.42;;
18048;SDS011;9149;47.002;8.604;2023-08-31T06:14:06;2.88;;;2.10;;
18048;SDS011;9149;47.002;8.604;2023-08-31T06:16:35;4.00;;;2.40;;
18048;SDS011;9149;47.002;8.604;2023-08-31T06:19:03;4.10;;;2.15;;
18048;SDS011;9149;47.002;8.604;2023-08-31T06:21:31;3.67;;;2.20;;
18048;SDS011;9149;47.002;8.604;2023-08-31T06:23:59;3.85;;;2.20;;
18048;SDS011;9149;47.002;8.604;2023-08-31T06:26:26;3.00;;;2.15;;
18048;SDS011;9149;47.002;8.604;2023-08-31T06:28:54;4.10;;;2.00;;
18048;SDS011;9149;47.002;8.604;2023-08-31T06:31:22;6.20;;;2.63;;
18048;SDS011;9149;47.002;8.604;2023-08-31T06:33:51;3.90;;;2.60;;
18048;SDS011;9149;47.002;8.604;2023-08-31T06:36:18;3.17;;;2.10;;
18048;SDS011;9149;47.002;8.604;2023-08-31T06:38:46;3.58;;;2.30;;
18048;SDS011;9149;47.002;8.604;2023-08-31T06:41:14;9.27;;;2.58;;
18048;SDS011;9149;47.002;8.604;2023-08-31T06:43:42;5.13;;;2.30;;
18048;SDS011;9149;47.002;8.604;2023-08-31T06:46:09;4.30;;;2.17;;
18048;SDS011;9149;47.002;8.604;2023-08-31T06:48:43;5.60;;;2.55;;
18048;SDS011;9149;47.002;8.604;2023-08-31T06:51:12;9.82;;;2.50;;
18048;SDS011;9149;47.002;8.604;2023-08-31T06:56:32;4.90;;;2.60;;
18048;SDS011;9149;47.002;8.604;2023-08-31T06:59:00;12.50;;;2.70;;
18048;SDS011;9149;47.002;8.604;2023-08-31T07:01:29;5.20;;;2.83;;
18048;SDS011;9149;47.002;8.604;2023-08-31T07:03:59;4.90;;;2.83;;
18048;SDS011;9149;47.002;8.604;2023-08-31T07:06:28;9.48;;;3.30;;
18048;SDS011;9149;47.002;8.604;2023-08-31T07:08:56;7.07;;;3.25;;
18048;SDS011;9149;47.002;8.604;2023-08-31T07:11:23;4.75;;;2.88;;
18048;SDS011;9149;47.002;8.604;2023-08-31T07:13:52;10.10;;;3.45;;
18048;SDS011;9149;47.002;8.604;2023-08-31T07:16:20;10.48;;;3.72;;
18048;SDS011;9149;47.002;8.604;2023-08-31T07:19:03;12.18;;;4.20;;
18048;SDS011;9149;47.002;8.604;2023-08-31T07:21:32;6.93;;;3.90;;
18048;SDS011;9149;47.002;8.604;2023-08-31T07:24:00;9.82;;;4.50;;
18048;SDS011;9149;47.002;8.604;2023-08-31T07:26:27;6.38;;;3.45;;
18048;SDS011;9149;47.002;8.604;2023-08-31T07:28:55;6.80;;;3.45;;
18048;SDS011;9149;47.002;8.604;2023-08-31T07:31:22;5.88;;;2.70;;
18048;SDS011;9149;47.002;8.604;2023-08-31T07:33:50;5.53;;;2.90;;
18048;SDS011;9149;47.002;8.604;2023-08-31T07:36:18;6.32;;;3.05;;
18048;SDS011;9149;47.002;8.604;2023-08-31T07:38:47;4.00;;;2.75;;
18048;SDS011;9149;47.002;8.604;2023-08-31T07:41:15;5.15;;;3.03;;
18048;SDS011;9149;47.002;8.604;2023-08-31T07:43:42;6.15;;;2.97;;
18048;SDS011;9149;47.002;8.604;2023-08-31T07:46:29;6.95;;;2.67;;
18048;SDS011;9149;47.002;8.604;2023-08-31T07:48:56;4.75;;;2.75;;
18048;SDS011;9149;47.002;8.604;2023-08-31T07:51:24;7.35;;;2.80;;
18048;SDS011;9149;47.002;8.604;2023-08-31T07:53:53;6.22;;;2.53;;
18048;SDS011;9149;47.002;8.604;2023-08-31T07:56:21;4.93;;;2.70;;
18048;SDS011;9149;47.002;8.604;2023-08-31T07:58:49;4.63;;;2.50;;
18048;SDS011;9149;47.002;8.604;2023-08-31T08:01:17;5.00;;;2.47;;
18048;SDS011;9149;47.002;8.604;2023-08-31T08:03:45;2.97;;;2.13;;
18048;SDS011;9149;47.002;8.604;2023-08-31T08:06:12;4.78;;;2.25;;
18048;SDS011;9149;47.002;8.604;2023-08-31T08:08:41;3.65;;;2.47;;
18048;SDS011;9149;47.002;8.604;2023-08-31T08:11:09;4.03;;;2.42;;
18048;SDS011;9149;47.002;8.604;2023-08-31T08:13:37;4.95;;;2.55;;
18048;SDS011;9149;47.002;8.604;2023-08-31T08:16:05;6.80;;;2.47;;
18048;SDS011;9149;47.002;8.604;2023-08-31T08:18:33;4.38;;;2.50;;
18048;SDS011;9149;47.002;8.604;2023-08-31T08:21:00;5.47;;;2.20;;
18048;SDS011;9149;47.002;8.604;2023-08-31T08:23:28;5.03;;;2.67;;
18048;SDS011;9149;47.002;8.604;2023-08-31T08:25:55;6.78;;;2.35;;
18048;SDS011;9149;47.002;8.604;2023-08-31T08:28:27;12.68;;;2.67;;
18048;SDS011;9149;47.002;8.604;2023-08-31T08:30:54;6.35;;;2.95;;
18048;SDS011;9149;47.002;8.604;2023-08-31T08:33:22;6.47;;;2.40;;
18048;SDS011;9149;47.002;8.604;2023-08-31T08:35:51;3.22;;;2.15;;
18048;SDS011;9149;47.002;8.604;2023-08-31T08:38:18;3.22;;;2.10;;
18048;SDS011;9149;47.002;8.604;2023-08-31T08:40:47;4.38;;;2.10;;
18048;SDS011;9149;47.002;8.604;2023-08-31T08:43:14;3.33;;;2.22;;
18048;SDS011;9149;47.002;8.604;2023-08-31T08:45:44;4.30;;;1.85;;
18048;SDS011;9149;47.002;8.604;2023-08-31T08:48:14;2.90;;;1.80;;
18048;SDS011;9149;47.002;8.604;2023-08-31T08:50:42;5.20;;;2.15;;
18048;SDS011;9149;47.002;8.604;2023-08-31T08:53:10;2.92;;;1.98;;
18048;SDS011;9149;47.002;8.604;2023-08-31T08:55:40;4.55;;;2.00;;
18048;SDS011;9149;47.002;8.604;2023-08-31T08:58:21;9.18;;;1.77;;
18048;SDS011;9149;47.002;8.604;2023-08-31T09:00:50;2.28;;;1.60;;
18048;SDS011;9149;47.002;8.604;2023-08-31T09:03:18;5.22;;;1.75;;
18048;SDS011;9149;47.002;8.604;2023-08-31T09:05:45;2.60;;;1.98;;
18048;SDS011;9149;47.002;8.604;2023-08-31T09:08:13;3.90;;;1.70;;
18048;SDS011;9149;47.002;8.604;2023-08-31T09:10:42;3.63;;;1.83;;
18048;SDS011;9149;47.002;8.604;2023-08-31T09:13:11;3.53;;;1.70;;
18048;SDS011;9149;47.002;8.604;2023-08-31T09:15:39;4.15;;;1.67;;
18048;SDS011;9149;47.002;8.604;2023-08-31T09:18:09;2.45;;;1.70;;
18048;SDS011;9149;47.002;8.604;2023-08-31T09:20:44;4.32;;;1.80;;
18048;SDS011;9149;47.002;8.604;2023-08-31T09:23:12;3.05;;;1.85;;
18048;SDS011;9149;47.002;8.604;2023-08-31T09:25:41;3.00;;;1.90;;
18048;SDS011;9149;47.002;8.604;2023-08-31T09:28:09;5.13;;;1.70;;
18048;SDS011;9149;47.002;8.604;2023-08-31T09:30:36;4.47;;;1.60;;
18048;SDS011;9149;47.002;8.604;2023-08-31T09:33:04;3.92;;;1.70;;
18048;SDS011;9149;47.002;8.604;2023-08-31T09:35:34;3.65;;;1.50;;
18048;SDS011;9149;47.002;8.604;2023-08-31T09:38:01;2.53;;;1.42;;
18048;SDS011;9149;47.002;8.604;2023-08-31T09:40:29;2.63;;;1.67;;
18048;SDS011;9149;47.002;8.604;2023-08-31T09:42:57;2.95;;;1.40;;
18048;SDS011;9149;47.002;8.604;2023-08-31T09:45:25;4.80;;;1.83;;
18048;SDS011;9149;47.002;8.604;2023-08-31T09:48:11;2.67;;;1.50;;
18048;SDS011;9149;47.002;8.604;2023-08-31T09:50:40;3.88;;;1.40;;
18048;SDS011;9149;47.002;8.604;2023-08-31T09:53:09;2.97;;;1.52;;
18048;SDS011;9149;47.002;8.604;2023-08-31T09:55:39;2.90;;;1.40;;
18048;SDS011;9149;47.002;8.604;2023-08-31T09:58:07;12.80;;;1.77;;
18048;SDS011;9149;47.002;8.604;2023-08-31T10:00:41;2.05;;;1.30;;
18048;SDS011;9149;47.002;8.604;2023-08-31T10:03:09;2.33;;;1.65;;
18048;SDS011;9149;47.002;8.604;2023-08-31T10:05:44;2.17;;;1.30;;
18048;SDS011;9149;47.002;8.604;2023-08-31T10:08:12;2.33;;;1.38;;
18048;SDS011;9149;47.002;8.604;2023-08-31T10:10:40;4.50;;;1.67;;
18048;SDS011;9149;47.002;8.604;2023-08-31T10:13:08;2.10;;;1.30;;
18048;SDS011;9149;47.002;8.604;2023-08-31T10:15:37;3.72;;;1.60;;
18048;SDS011;9149;47.002;8.604;2023-08-31T10:18:06;3.90;;;1.52;;
18048;SDS011;9149;47.002;8.604;2023-08-31T10:20:34;1.98;;;1.13;;
18048;SDS011;9149;47.002;8.604;2023-08-31T10:23:04;2.45;;;1.38;;
18048;SDS011;9149;47.002;8.604;2023-08-31T10:28:16;3.58;;;1.60;;
18048;SDS011;9149;47.002;8.604;2023-08-31T10:30:48;3.70;;;1.48;;
18048;SDS011;9149;47.002;8.604;2023-08-31T10:33:27;2.38;;;1.55;;
18048;SDS011;9149;47.002;8.604;2023-08-31T10:35:55;2.05;;;1.48;;
18048;SDS011;9149;47.002;8.604;2023-08-31T10:38:25;8.65;;;1.80;;
18048;SDS011;9149;47.002;8.604;2023-08-31T10:41:01;3.67;;;1.90;;
18048;SDS011;9149;47.002;8.604;2023-08-31T10:46:16;3.10;;;1.90;;
18048;SDS011;9149;47.002;8.604;2023-08-31T10:48:49;3.10;;;2.13;;
18048;SDS011;9149;47.002;8.604;2023-08-31T10:51:17;3.63;;;1.98;;
18048;SDS011;9149;47.002;8.604;2023-08-31T10:53:46;3.88;;;1.88;;
18048;SDS011;9149;47.002;8.604;2023-08-31T10:56:15;3.85;;;2.17;;
18048;SDS011;9149;47.002;8.604;2023-08-31T10:58:43;4.45;;;2.22;;
18048;SDS011;9149;47.002;8.604;2023-08-31T11:01:11;3.30;;;2.10;;
18048;SDS011;9149;47.002;8.604;2023-08-31T11:06:21;5.72;;;2.38;;
18048;SDS011;9149;47.002;8.604;2023-08-31T11:08:53;7.18;;;2.85;;
18048;SDS011;9149;47.002;8.604;2023-08-31T11:11:21;4.35;;;2.35;;
18048;SDS011;9149;47.002;8.604;2023-08-31T11:13:56;2.97;;;2.13;;
18048;SDS011;9149;47.002;8.604;2023-08-31T11:16:23;3.15;;;2.10;;
18048;SDS011;9149;47.002;8.604;2023-08-31T11:18:52;3.15;;;2.22;;
18048;SDS011;9149;47.002;8.604;2023-08-31T11:21:20;4.00;;;2.47;;
18048;SDS011;9149;47.002;8.604;2023-08-31T11:23:48;8.98;;;2.75;;
18048;SDS011;9149;47.002;8.604;2023-08-31T11:26:17;3.85;;;2.50;;
18048;SDS011;9149;47.002;8.604;2023-08-31T11:28:46;4.30;;;2.63;;
18048;SDS011;9149;47.002;8.604;2023-08-31T11:31:14;9.32;;;3.10;;
18048;SDS011;9149;47.002;8.604;2023-08-31T11:33:50;4.68;;;2.42;;
18048;SDS011;9149;47.002;8.604;2023-08-31T11:36:18;5.28;;;2.53;;
18048;SDS011;9149;47.002;8.604;2023-08-31T11:38:47;7.30;;;2.78;;
18048;SDS011;9149;47.002;8.604;2023-08-31T11:41:15;4.03;;;2.60;;
18048;SDS011;9149;47.002;8.604;2023-08-31T11:43:44;4.47;;;2.90;;
18048;SDS011;9149;47.002;8.604;2023-08-31T11:46:12;4.13;;;2.70;;
18048;SDS011;9149;47.002;8.604;2023-08-31T11:48:40;6.32;;;2.67;;
18048;SDS011;9149;47.002;8.604;2023-08-31T11:51:08;3.30;;;2.50;;
18048;SDS011;9149;47.002;8.604;2023-08-31T11:53:36;4.65;;;2.72;;
18048;SDS011;9149;47.002;8.604;2023-08-31T11:56:04;7.95;;;3.15;;
18048;SDS011;9149;47.002;8.604;2023-08-31T11:58:32;6.45;;;3.33;;
18048;SDS011;9149;47.002;8.604;2023-08-31T12:01:01;6.10;;;3.50;;
18048;SDS011;9149;47.002;8.604;2023-08-31T12:03:37;4.63;;;2.95;;
18048;SDS011;9149;47.002;8.604;2023-08-31T12:06:16;5.50;;;2.92;;
18048;SDS011;9149;47.002;8.604;2023-08-31T12:08:45;4.45;;;2.80;;
18048;SDS011;9149;47.002;8.604;2023-08-31T12:11:12;5.85;;;3.25;;
18048;SDS011;9149;47.002;8.604;2023-08-31T12:13:41;8.85;;;3.13;;
18048;SDS011;9149;47.002;8.604;2023-08-31T12:16:12;8.05;;;3.38;;
18048;SDS011;9149;47.002;8.604;2023-08-31T12:18:40;5.20;;;2.97;;
18048;SDS011;9149;47.002;8.604;2023-08-31T12:21:08;4.85;;;3.03;;
18048;SDS011;9149;47.002;8.604;2023-08-31T12:23:35;9.35;;;3.28;;
18048;SDS011;9149;47.002;8.604;2023-08-31T12:26:05;5.05;;;2.78;;
18048;SDS011;9149;47.002;8.604;2023-08-31T12:28:34;6.20;;;3.35;;
18048;SDS011;9149;47.002;8.604;2023-08-31T12:31:02;4.35;;;2.65;;
18048;SDS011;9149;47.002;8.604;2023-08-31T12:33:32;5.85;;;3.30;;
18048;SDS011;9149;47.002;8.604;2023-08-31T12:35:59;5.18;;;3.00;;
18048;SDS011;9149;47.002;8.604;2023-08-31T12:38:30;4.47;;;2.85;;
18048;SDS011;9149;47.002;8.604;2023-08-31T12:40:58;5.03;;;2.90;;
18048;SDS011;9149;47.002;8.604;2023-08-31T12:43:25;3.85;;;2.55;;
18048;SDS011;9149;47.002;8.604;2023-08-31T12:45:53;6.43;;;3.20;;
18048;SDS011;9149;47.002;8.604;2023-08-31T12:48:20;5.35;;;2.92;;
18048;SDS011;9149;47.002;8.604;2023-08-31T12:50:49;7.72;;;2.95;;
18048;SDS011;9149;47.002;8.604;2023-08-31T12:53:20;6.07;;;3.22;;
18048;SDS011;9149;47.002;8.604;2023-08-31T12:55:48;7.18;;;3.22;;
18048;SDS011;9149;47.002;8.604;2023-08-31T12:58:16;4.07;;;2.72;;
18048;SDS011;9149;47.002;8.604;2023-08-31T13:00:43;5.97;;;3.17;;
18048;SDS011;9149;47.002;8.604;2023-08-31T13:03:12;4.90;;;3.08;;
18048;SDS011;9149;47.002;8.604;2023-08-31T13:05:41;5.32;;;2.83;;
18048;SDS011;9149;47.002;8.604;2023-08-31T13:08:10;4.45;;;2.88;;
18048;SDS011;9149;47.002;8.604;2023-08-31T13:10:38;4.20;;;2.90;;
18048;SDS011;9149;47.002;8.604;2023-08-31T13:13:06;4.68;;;2.63;;
18048;SDS011;9149;47.002;8.604;2023-08-31T13:15:34;5.07;;;2.72;;
18048;SDS011;9149;47.002;8.604;2023-08-31T13:18:01;11.70;;;2.78;;
18048;SDS011;9149;47.002;8.604;2023-08-31T13:20:29;4.43;;;2.85;;
18048;SDS011;9149;47.002;8.604;2023-08-31T13:22:57;4.43;;;2.65;;
18048;SDS011;9149;47.002;8.604;2023-08-31T13:25:26;6.28;;;2.63;;
18048;SDS011;9149;47.002;8.604;2023-08-31T13:27:53;3.88;;;2.08;;
18048;SDS011;9149;47.002;8.604;2023-08-31T13:30:21;4.13;;;2.38;;
18048;SDS011;9149;47.002;8.604;2023-08-31T13:32:49;7.10;;;2.50;;
18048;SDS011;9149;47.002;8.604;2023-08-31T13:35:17;5.57;;;2.42;;
18048;SDS011;9149;47.002;8.604;2023-08-31T13:37:44;7.22;;;3.28;;
18048;SDS011;9149;47.002;8.604;2023-08-31T13:40:12;4.38;;;2.53;;
18048;SDS011;9149;47.002;8.604;2023-08-31T13:42:48;5.40;;;2.40;;
18048;SDS011;9149;47.002;8.604;2023-08-31T13:45:16;5.93;;;1.95;;
18048;SDS011;9149;47.002;8.604;2023-08-31T13:47:44;6.28;;;2.20;;
18048;SDS011;9149;47.002;8.604;2023-08-31T13:50:14;5.45;;;2.60;;
18048;SDS011;9149;47.002;8.604;2023-08-31T13:52:42;4.47;;;2.40;;
18048;SDS011;9149;47.002;8.604;2023-08-31T13:55:09;5.95;;;2.58;;
18048;SDS011;9149;47.002;8.604;2023-08-31T13:57:37;6.90;;;2.53;;
18048;SDS011;9149;47.002;8.604;2023-08-31T14:00:07;4.05;;;2.30;;
18048;SDS011;9149;47.002;8.604;2023-08-31T14:02:38;3.90;;;2.38;;
18048;SDS011;9149;47.002;8.604;2023-08-31T14:05:06;4.00;;;2.40;;
18048;SDS011;9149;47.002;8.604;2023-08-31T14:07:35;6.93;;;2.53;;
18048;SDS011;9149;47.002;8.604;2023-08-31T14:10:03;4.82;;;2.50;;
18048;SDS011;9149;47.002;8.604;2023-08-31T14:12:31;10.02;;;2.90;;
18048;SDS011;9149;47.002;8.604;2023-08-31T14:14:59;3.83;;;2.47;;
18048;SDS011;9149;47.002;8.604;2023-08-31T14:17:32;5.80;;;3.08;;
18048;SDS011;9149;47.002;8.604;2023-08-31T14:19:59;5.72;;;2.42;;
18048;SDS011;9149;47.002;8.604;2023-08-31T14:22:32;4.03;;;2.35;;
18048;SDS011;9149;47.002;8.604;2023-08-31T14:25:00;5.28;;;2.53;;
18048;SDS011;9149;47.002;8.604;2023-08-31T14:27:28;4.72;;;2.50;;
18048;SDS011;9149;47.002;8.604;2023-08-31T14:29:56;6.75;;;2.72;;
18048;SDS011;9149;47.002;8.604;2023-08-31T14:32:24;4.10;;;2.35;;
18048;SDS011;9149;47.002;8.604;2023-08-31T14:34:54;4.43;;;2.60;;
18048;SDS011;9149;47.002;8.604;2023-08-31T14:37:22;4.93;;;2.47;;
18048;SDS011;9149;47.002;8.604;2023-08-31T14:39:50;4.60;;;2.42;;
18048;SDS011;9149;47.002;8.604;2023-08-31T14:42:18;3.08;;;2.28;;
18048;SDS011;9149;47.002;8.604;2023-08-31T14:44:47;5.35;;;2.45;;
18048;SDS011;9149;47.002;8.604;2023-08-31T14:47:15;3.70;;;2.55;;
18048;SDS011;9149;47.002;8.604;2023-08-31T14:49:43;5.18;;;2.30;;
18048;SDS011;9149;47.002;8.604;2023-08-31T14:54:59;5.55;;;2.63;;
18048;SDS011;9149;47.002;8.604;2023-08-31T14:57:27;6.43;;;2.55;;
18048;SDS011;9149;47.002;8.604;2023-08-31T14:59:55;7.60;;;2.75;;
18048;SDS011;9149;47.002;8.604;2023-08-31T15:02:26;7.35;;;2.63;;
18048;SDS011;9149;47.002;8.604;2023-08-31T15:04:54;5.32;;;2.22;;
18048;SDS011;9149;47.002;8.604;2023-08-31T15:07:22;2.80;;;1.98;;
18048;SDS011;9149;47.002;8.604;2023-08-31T15:09:51;4.85;;;2.45;;
18048;SDS011;9149;47.002;8.604;2023-08-31T15:12:20;3.42;;;2.08;;
18048;SDS011;9149;47.002;8.604;2023-08-31T15:14:48;5.43;;;2.50;;
18048;SDS011;9149;47.002;8.604;2023-08-31T15:17:15;3.85;;;2.42;;
18048;SDS011;9149;47.002;8.604;2023-08-31T15:19:43;4.32;;;2.40;;
18048;SDS011;9149;47.002;8.604;2023-08-31T15:22:11;6.03;;;2.42;;
18048;SDS011;9149;47.002;8.604;2023-08-31T15:24:39;5.25;;;2.95;;